sensor_id;sensor_type;location;lat;lon;timestamp;P1;durP1;ratioP1;P2;durP2;ratioP2
53875;SDS011;39789;53.216;5.624;2022-12-07T00:02:04;10.35;;;2.65;;
53875;SDS011;39789;53.216;5.624;2022-12-07T00:04:29;15.00;;;2.33;;
53875;SDS011;39789;53.216;5.624;2022-12-07T00:06:55;10.65;;;2.08;;
53875;SDS011;39789;53.216;5.624;2022-12-07T00:09:20;9.07;;;2.40;;
53875;SDS011;39789;53.216;5.624;2022-12-07T00:11:50;10.52;;;2.40;;
53875;SDS011;39789;53.216;5.624;2022-12-07T00:14:16;11.40;;;2.22;;
53875;SDS011;39789;53.216;5.624;2022-12-07T00:16:43;12.77;;;2.53;;
53875;SDS011;39789;53.216;5.624;2022-12-07T00:19:10;13.57;;;2.17;;
53875;SDS011;39789;53.216;5.624;2022-12-07T00:21:37;5.88;;;1.92;;
53875;SDS011;39789;53.216;5.624;2022-12-07T00:24:03;3.45;;;1.20;;
53875;SDS011;39789;53.216;5.624;2022-12-07T00:26:30;7.35;;;1.63;;
53875;SDS011;39789;53.216;5.624;2022-12-07T00:29:01;4.18;;;0.80;;
53875;SDS011;39789;53.216;5.624;2022-12-07T00:31:32;5.55;;;1.25;;
53875;SDS011;39789;53.216;5.624;2022-12-07T00:34:15;5.15;;;1.42;;
53875;SDS011;39789;53.216;5.624;2022-12-07T00:36:42;4.95;;;1.25;;
53875;SDS011;39789;53.216;5.624;2022-12-07T00:39:08;6.25;;;1.67;;
53875;SDS011;39789;53.216;5.624;2022-12-07T00:41:33;3.42;;;1.17;;
53875;SDS011;39789;53.216;5.624;2022-12-07T00:43:59;3.42;;;1.10;;
53875;SDS011;39789;53.216;5.624;2022-12-07T00:46:25;2.78;;;1.00;;
53875;SDS011;39789;53.216;5.624;2022-12-07T00:48:51;6.50;;;1.63;;
53875;SDS011;39789;53.216;5.624;2022-12-07T00:51:19;3.50;;;1.38;;
53875;SDS011;39789;53.216;5.624;2022-12-07T00:53:46;4.43;;;1.75;;
53875;SDS011;39789;53.216;5.624;2022-12-07T00:56:14;6.22;;;1.70;;
53875;SDS011;39789;53.216;5.624;2022-12-07T00:58:41;3.45;;;1.80;;
53875;SDS011;39789;53.216;5.624;2022-12-07T01:01:07;7.70;;;1.50;;
53875;SDS011;39789;53.216;5.624;2022-12-07T01:03:34;10.23;;;1.65;;
53875;SDS011;39789;53.216;5.624;2022-12-07T01:06:00;5.88;;;1.30;;
53875;SDS011;39789;53.216;5.624;2022-12-07T01:08:27;6.82;;;1.85;;
53875;SDS011;39789;53.216;5.624;2022-12-07T01:13:29;12.15;;;2.50;;
53875;SDS011;39789;53.216;5.624;2022-12-07T01:15:59;11.35;;;2.08;;
53875;SDS011;39789;53.216;5.624;2022-12-07T01:18:27;8.75;;;2.20;;
53875;SDS011;39789;53.216;5.624;2022-12-07T01:21:00;9.52;;;1.88;;
53875;SDS011;39789;53.216;5.624;2022-12-07T01:23:31;9.88;;;2.10;;
53875;SDS011;39789;53.216;5.624;2022-12-07T01:25:58;8.40;;;2.13;;
53875;SDS011;39789;53.216;5.624;2022-12-07T01:28:25;7.80;;;2.47;;
53875;SDS011;39789;53.216;5.624;2022-12-07T01:30:56;7.60;;;1.70;;
53875;SDS011;39789;53.216;5.624;2022-12-07T01:33:30;9.45;;;2.00;;
53875;SDS011;39789;53.216;5.624;2022-12-07T01:36:17;9.70;;;1.95;;
53875;SDS011;39789;53.216;5.624;2022-12-07T01:38:43;6.93;;;1.67;;
53875;SDS011;39789;53.216;5.624;2022-12-07T01:41:09;6.45;;;1.95;;
53875;SDS011;39789;53.216;5.624;2022-12-07T01:43:35;9.98;;;1.70;;
53875;SDS011;39789;53.216;5.624;2022-12-07T01:46:02;5.97;;;1.50;;
53875;SDS011;39789;53.216;5.624;2022-12-07T01:48:37;5.38;;;1.90;;
53875;SDS011;39789;53.216;5.624;2022-12-07T01:51:05;6.53;;;1.63;;
53875;SDS011;39789;53.216;5.624;2022-12-07T01:53:35;4.32;;;1.25;;
53875;SDS011;39789;53.216;5.624;2022-12-07T01:56:08;7.25;;;1.50;;
53875;SDS011;39789;53.216;5.624;2022-12-07T01:58:37;6.55;;;1.30;;
53875;SDS011;39789;53.216;5.624;2022-12-07T02:01:03;4.22;;;1.30;;
53875;SDS011;39789;53.216;5.624;2022-12-07T02:03:37;2.20;;;1.30;;
53875;SDS011;39789;53.216;5.624;2022-12-07T02:06:05;6.97;;;1.92;;
53875;SDS011;39789;53.216;5.624;2022-12-07T02:08:32;5.50;;;1.88;;
53875;SDS011;39789;53.216;5.624;2022-12-07T02:10:59;5.38;;;1.38;;
53875;SDS011;39789;53.216;5.624;2022-12-07T02:13:26;10.35;;;1.77;;
53875;SDS011;39789;53.216;5.624;2022-12-07T02:24:12;10.82;;;2.47;;
53875;SDS011;39789;53.216;5.624;2022-12-07T02:29:56;4.45;;;1.60;;
53875;SDS011;39789;53.216;5.624;2022-12-07T02:35:09;5.05;;;1.63;;
53875;SDS011;39789;53.216;5.624;2022-12-07T02:37:43;5.80;;;1.50;;
53875;SDS011;39789;53.216;5.624;2022-12-07T02:40:29;5.50;;;1.27;;
53875;SDS011;39789;53.216;5.624;2022-12-07T02:43:02;5.85;;;1.40;;
53875;SDS011;39789;53.216;5.624;2022-12-07T02:45:34;6.47;;;1.65;;
53875;SDS011;39789;53.216;5.624;2022-12-07T02:48:02;5.82;;;1.23;;
53875;SDS011;39789;53.216;5.624;2022-12-07T02:50:28;5.45;;;1.70;;
53875;SDS011;39789;53.216;5.624;2022-12-07T02:52:54;7.20;;;1.45;;
53875;SDS011;39789;53.216;5.624;2022-12-07T02:55:21;4.82;;;1.33;;
53875;SDS011;39789;53.216;5.624;2022-12-07T02:57:54;9.40;;;2.25;;
53875;SDS011;39789;53.216;5.624;2022-12-07T03:00:30;6.25;;;2.35;;
53875;SDS011;39789;53.216;5.624;2022-12-07T03:03:00;5.53;;;1.98;;
53875;SDS011;39789;53.216;5.624;2022-12-07T03:05:35;10.55;;;1.80;;
53875;SDS011;39789;53.216;5.624;2022-12-07T03:14:08;4.15;;;1.30;;
53875;SDS011;39789;53.216;5.624;2022-12-07T03:16:52;4.65;;;1.20;;
53875;SDS011;39789;53.216;5.624;2022-12-07T03:19:22;4.70;;;1.10;;
53875;SDS011;39789;53.216;5.624;2022-12-07T03:21:53;9.82;;;1.85;;
53875;SDS011;39789;53.216;5.624;2022-12-07T03:24:24;6.13;;;1.67;;
53875;SDS011;39789;53.216;5.624;2022-12-07T03:26:56;3.65;;;1.30;;
53875;SDS011;39789;53.216;5.624;2022-12-07T03:29:52;3.17;;;0.85;;
53875;SDS011;39789;53.216;5.624;2022-12-07T03:32:23;4.82;;;1.33;;
53875;SDS011;39789;53.216;5.624;2022-12-07T03:35:17;9.07;;;1.63;;
53875;SDS011;39789;53.216;5.624;2022-12-07T03:37:54;9.57;;;1.25;;
53875;SDS011;39789;53.216;5.624;2022-12-07T03:40:30;4.07;;;1.48;;
53875;SDS011;39789;53.216;5.624;2022-12-07T03:43:01;9.13;;;2.30;;
53875;SDS011;39789;53.216;5.624;2022-12-07T03:45:32;4.90;;;1.65;;
53875;SDS011;39789;53.216;5.624;2022-12-07T03:48:20;7.28;;;2.60;;
53875;SDS011;39789;53.216;5.624;2022-12-07T03:50:52;11.95;;;1.90;;
53875;SDS011;39789;53.216;5.624;2022-12-07T03:53:36;5.95;;;1.35;;
53875;SDS011;39789;53.216;5.624;2022-12-07T03:56:12;9.10;;;1.80;;
53875;SDS011;39789;53.216;5.624;2022-12-07T03:58:39;13.32;;;2.33;;
53875;SDS011;39789;53.216;5.624;2022-12-07T04:01:06;9.15;;;2.20;;
53875;SDS011;39789;53.216;5.624;2022-12-07T04:03:31;10.70;;;2.50;;
53875;SDS011;39789;53.216;5.624;2022-12-07T04:05:57;8.57;;;2.10;;
53875;SDS011;39789;53.216;5.624;2022-12-07T04:08:24;5.70;;;1.30;;
53875;SDS011;39789;53.216;5.624;2022-12-07T04:10:49;7.38;;;1.70;;
53875;SDS011;39789;53.216;5.624;2022-12-07T04:13:15;8.27;;;1.40;;
53875;SDS011;39789;53.216;5.624;2022-12-07T04:15:41;3.72;;;1.40;;
53875;SDS011;39789;53.216;5.624;2022-12-07T04:18:06;4.13;;;1.42;;
53875;SDS011;39789;53.216;5.624;2022-12-07T04:20:32;4.75;;;1.48;;
53875;SDS011;39789;53.216;5.624;2022-12-07T04:22:57;4.07;;;1.58;;
53875;SDS011;39789;53.216;5.624;2022-12-07T04:25:23;7.20;;;1.38;;
53875;SDS011;39789;53.216;5.624;2022-12-07T04:27:49;4.82;;;1.38;;
53875;SDS011;39789;53.216;5.624;2022-12-07T04:30:14;6.78;;;1.80;;
53875;SDS011;39789;53.216;5.624;2022-12-07T04:32:40;4.80;;;1.52;;
53875;SDS011;39789;53.216;5.624;2022-12-07T04:35:05;5.60;;;1.73;;
53875;SDS011;39789;53.216;5.624;2022-12-07T04:37:31;6.75;;;1.40;;
53875;SDS011;39789;53.216;5.624;2022-12-07T04:39:57;9.38;;;2.05;;
53875;SDS011;39789;53.216;5.624;2022-12-07T04:42:22;11.68;;;1.70;;
53875;SDS011;39789;53.216;5.624;2022-12-07T04:44:48;7.53;;;1.73;;
53875;SDS011;39789;53.216;5.624;2022-12-07T04:47:13;8.73;;;1.67;;
53875;SDS011;39789;53.216;5.624;2022-12-07T04:49:39;6.85;;;1.63;;
53875;SDS011;39789;53.216;5.624;2022-12-07T04:52:05;7.40;;;2.13;;
53875;SDS011;39789;53.216;5.624;2022-12-07T04:54:30;4.90;;;1.33;;
53875;SDS011;39789;53.216;5.624;2022-12-07T04:56:56;11.90;;;2.10;;
53875;SDS011;39789;53.216;5.624;2022-12-07T04:59:24;7.85;;;1.75;;
53875;SDS011;39789;53.216;5.624;2022-12-07T05:01:50;9.50;;;2.08;;
53875;SDS011;39789;53.216;5.624;2022-12-07T05:04:16;6.93;;;1.30;;
53875;SDS011;39789;53.216;5.624;2022-12-07T05:06:42;5.97;;;1.50;;
53875;SDS011;39789;53.216;5.624;2022-12-07T05:09:08;8.88;;;1.70;;
53875;SDS011;39789;53.216;5.624;2022-12-07T05:11:34;11.05;;;1.60;;
53875;SDS011;39789;53.216;5.624;2022-12-07T05:14:03;11.50;;;2.42;;
53875;SDS011;39789;53.216;5.624;2022-12-07T05:16:35;11.88;;;1.90;;
53875;SDS011;39789;53.216;5.624;2022-12-07T05:19:02;10.45;;;2.83;;
53875;SDS011;39789;53.216;5.624;2022-12-07T05:21:28;9.00;;;2.03;;
53875;SDS011;39789;53.216;5.624;2022-12-07T05:23:53;6.10;;;1.85;;
53875;SDS011;39789;53.216;5.624;2022-12-07T05:26:19;7.93;;;1.88;;
53875;SDS011;39789;53.216;5.624;2022-12-07T05:28:44;9.73;;;1.95;;
53875;SDS011;39789;53.216;5.624;2022-12-07T05:31:10;9.88;;;2.40;;
53875;SDS011;39789;53.216;5.624;2022-12-07T05:33:35;11.63;;;1.80;;
53875;SDS011;39789;53.216;5.624;2022-12-07T05:36:01;6.90;;;2.08;;
53875;SDS011;39789;53.216;5.624;2022-12-07T05:38:30;8.77;;;2.05;;
53875;SDS011;39789;53.216;5.624;2022-12-07T05:40:59;15.55;;;2.83;;
53875;SDS011;39789;53.216;5.624;2022-12-07T05:43:28;14.95;;;2.13;;
53875;SDS011;39789;53.216;5.624;2022-12-07T05:45:54;15.23;;;2.42;;
53875;SDS011;39789;53.216;5.624;2022-12-07T05:48:21;8.82;;;1.85;;
53875;SDS011;39789;53.216;5.624;2022-12-07T05:50:47;10.80;;;1.90;;
53875;SDS011;39789;53.216;5.624;2022-12-07T05:53:13;11.27;;;2.20;;
53875;SDS011;39789;53.216;5.624;2022-12-07T05:55:39;15.13;;;2.88;;
53875;SDS011;39789;53.216;5.624;2022-12-07T05:58:05;9.10;;;2.45;;
53875;SDS011;39789;53.216;5.624;2022-12-07T06:00:49;9.40;;;1.93;;
53875;SDS011;39789;53.216;5.624;2022-12-07T06:03:14;7.85;;;1.95;;
53875;SDS011;39789;53.216;5.624;2022-12-07T06:05:40;11.02;;;1.60;;
53875;SDS011;39789;53.216;5.624;2022-12-07T06:08:06;5.95;;;1.83;;
53875;SDS011;39789;53.216;5.624;2022-12-07T06:10:32;6.57;;;2.00;;
53875;SDS011;39789;53.216;5.624;2022-12-07T06:12:57;9.30;;;2.03;;
53875;SDS011;39789;53.216;5.624;2022-12-07T06:15:23;4.82;;;1.75;;
53875;SDS011;39789;53.216;5.624;2022-12-07T06:17:49;7.38;;;2.40;;
53875;SDS011;39789;53.216;5.624;2022-12-07T06:20:14;7.25;;;1.70;;
53875;SDS011;39789;53.216;5.624;2022-12-07T06:22:40;6.70;;;2.30;;
53875;SDS011;39789;53.216;5.624;2022-12-07T06:25:06;11.88;;;2.05;;
53875;SDS011;39789;53.216;5.624;2022-12-07T06:27:32;8.35;;;2.03;;
53875;SDS011;39789;53.216;5.624;2022-12-07T06:29:58;8.80;;;2.55;;
53875;SDS011;39789;53.216;5.624;2022-12-07T06:32:24;8.30;;;2.10;;
53875;SDS011;39789;53.216;5.624;2022-12-07T06:34:49;10.75;;;2.22;;
53875;SDS011;39789;53.216;5.624;2022-12-07T06:37:15;8.30;;;2.28;;
53875;SDS011;39789;53.216;5.624;2022-12-07T06:39:40;11.82;;;2.45;;
53875;SDS011;39789;53.216;5.624;2022-12-07T06:42:06;12.75;;;2.17;;
53875;SDS011;39789;53.216;5.624;2022-12-07T06:44:32;9.25;;;2.22;;
53875;SDS011;39789;53.216;5.624;2022-12-07T06:46:57;13.00;;;2.88;;
53875;SDS011;39789;53.216;5.624;2022-12-07T06:49:23;12.48;;;2.10;;
53875;SDS011;39789;53.216;5.624;2022-12-07T06:51:49;6.10;;;1.60;;
53875;SDS011;39789;53.216;5.624;2022-12-07T06:54:15;8.40;;;2.17;;
53875;SDS011;39789;53.216;5.624;2022-12-07T06:56:41;11.68;;;1.95;;
53875;SDS011;39789;53.216;5.624;2022-12-07T06:59:07;6.50;;;1.67;;
53875;SDS011;39789;53.216;5.624;2022-12-07T07:01:33;11.27;;;2.28;;
53875;SDS011;39789;53.216;5.624;2022-12-07T07:07:41;7.22;;;1.60;;
53875;SDS011;39789;53.216;5.624;2022-12-07T07:10:07;3.75;;;0.95;;
53875;SDS011;39789;53.216;5.624;2022-12-07T07:12:33;3.78;;;1.05;;
53875;SDS011;39789;53.216;5.624;2022-12-07T07:14:58;5.80;;;1.15;;
53875;SDS011;39789;53.216;5.624;2022-12-07T07:17:24;2.35;;;0.98;;
53875;SDS011;39789;53.216;5.624;2022-12-07T07:19:49;2.40;;;1.00;;
53875;SDS011;39789;53.216;5.624;2022-12-07T07:22:15;3.05;;;1.40;;
53875;SDS011;39789;53.216;5.624;2022-12-07T07:24:40;1.73;;;1.10;;
53875;SDS011;39789;53.216;5.624;2022-12-07T07:27:06;3.00;;;1.42;;
53875;SDS011;39789;53.216;5.624;2022-12-07T07:29:32;6.00;;;1.42;;
53875;SDS011;39789;53.216;5.624;2022-12-07T07:31:57;2.55;;;1.20;;
53875;SDS011;39789;53.216;5.624;2022-12-07T07:34:23;7.22;;;1.90;;
53875;SDS011;39789;53.216;5.624;2022-12-07T07:36:48;5.22;;;1.40;;
53875;SDS011;39789;53.216;5.624;2022-12-07T07:39:14;7.10;;;1.90;;
53875;SDS011;39789;53.216;5.624;2022-12-07T07:41:39;14.45;;;2.50;;
53875;SDS011;39789;53.216;5.624;2022-12-07T07:44:05;6.03;;;1.85;;
53875;SDS011;39789;53.216;5.624;2022-12-07T07:46:31;8.50;;;2.05;;
53875;SDS011;39789;53.216;5.624;2022-12-07T07:52:39;12.45;;;2.38;;
53875;SDS011;39789;53.216;5.624;2022-12-07T07:55:05;10.82;;;2.08;;
53875;SDS011;39789;53.216;5.624;2022-12-07T07:57:33;14.68;;;2.30;;
53875;SDS011;39789;53.216;5.624;2022-12-07T08:00:00;9.25;;;1.95;;
53875;SDS011;39789;53.216;5.624;2022-12-07T08:02:26;9.73;;;2.45;;
53875;SDS011;39789;53.216;5.624;2022-12-07T08:04:54;8.15;;;2.35;;
53875;SDS011;39789;53.216;5.624;2022-12-07T08:07:21;6.68;;;1.45;;
53875;SDS011;39789;53.216;5.624;2022-12-07T08:09:47;4.47;;;1.27;;
53875;SDS011;39789;53.216;5.624;2022-12-07T08:12:13;3.13;;;1.35;;
53875;SDS011;39789;53.216;5.624;2022-12-07T08:14:38;7.43;;;1.95;;
53875;SDS011;39789;53.216;5.624;2022-12-07T08:17:04;9.10;;;1.83;;
53875;SDS011;39789;53.216;5.624;2022-12-07T08:19:30;2.38;;;1.08;;
53875;SDS011;39789;53.216;5.624;2022-12-07T08:24:44;9.38;;;1.77;;
53875;SDS011;39789;53.216;5.624;2022-12-07T08:27:09;4.45;;;1.30;;
53875;SDS011;39789;53.216;5.624;2022-12-07T08:29:35;6.35;;;1.33;;
53875;SDS011;39789;53.216;5.624;2022-12-07T08:32:01;7.88;;;1.15;;
53875;SDS011;39789;53.216;5.624;2022-12-07T08:34:26;6.40;;;2.08;;
53875;SDS011;39789;53.216;5.624;2022-12-07T08:36:52;8.68;;;2.08;;
53875;SDS011;39789;53.216;5.624;2022-12-07T08:39:17;10.00;;;2.22;;
53875;SDS011;39789;53.216;5.624;2022-12-07T08:41:43;8.30;;;2.08;;
53875;SDS011;39789;53.216;5.624;2022-12-07T08:44:08;15.25;;;2.60;;
53875;SDS011;39789;53.216;5.624;2022-12-07T08:46:35;7.65;;;1.60;;
53875;SDS011;39789;53.216;5.624;2022-12-07T08:49:15;11.07;;;2.30;;
53875;SDS011;39789;53.216;5.624;2022-12-07T08:51:43;10.77;;;2.13;;
53875;SDS011;39789;53.216;5.624;2022-12-07T08:54:10;11.43;;;2.58;;
53875;SDS011;39789;53.216;5.624;2022-12-07T08:56:38;7.07;;;2.10;;
53875;SDS011;39789;53.216;5.624;2022-12-07T08:59:04;10.32;;;2.30;;
53875;SDS011;39789;53.216;5.624;2022-12-07T09:01:31;9.25;;;1.98;;
53875;SDS011;39789;53.216;5.624;2022-12-07T09:07:38;5.05;;;1.85;;
53875;SDS011;39789;53.216;5.624;2022-12-07T09:10:04;15.73;;;2.03;;
53875;SDS011;39789;53.216;5.624;2022-12-07T09:12:30;9.52;;;2.17;;
53875;SDS011;39789;53.216;5.624;2022-12-07T09:14:56;13.55;;;1.90;;
53875;SDS011;39789;53.216;5.624;2022-12-07T09:17:22;10.60;;;2.17;;
53875;SDS011;39789;53.216;5.624;2022-12-07T09:19:47;7.85;;;2.10;;
53875;SDS011;39789;53.216;5.624;2022-12-07T09:22:13;10.55;;;2.53;;
53875;SDS011;39789;53.216;5.624;2022-12-07T09:24:38;9.13;;;2.33;;
53875;SDS011;39789;53.216;5.624;2022-12-07T09:27:04;10.45;;;2.72;;
53875;SDS011;39789;53.216;5.624;2022-12-07T09:29:29;9.95;;;2.25;;
53875;SDS011;39789;53.216;5.624;2022-12-07T09:31:55;10.43;;;3.38;;
53875;SDS011;39789;53.216;5.624;2022-12-07T09:34:20;10.57;;;2.53;;
53875;SDS011;39789;53.216;5.624;2022-12-07T09:36:46;6.85;;;2.05;;
53875;SDS011;39789;53.216;5.624;2022-12-07T09:39:12;6.20;;;1.90;;
53875;SDS011;39789;53.216;5.624;2022-12-07T09:41:38;8.50;;;2.35;;
53875;SDS011;39789;53.216;5.624;2022-12-07T09:44:09;9.93;;;1.83;;
53875;SDS011;39789;53.216;5.624;2022-12-07T09:50:05;8.35;;;2.10;;
53875;SDS011;39789;53.216;5.624;2022-12-07T09:52:36;5.60;;;1.70;;
53875;SDS011;39789;53.216;5.624;2022-12-07T09:55:02;7.20;;;1.73;;
53875;SDS011;39789;53.216;5.624;2022-12-07T09:57:29;8.95;;;2.05;;
53875;SDS011;39789;53.216;5.624;2022-12-07T09:59:59;5.15;;;1.40;;
53875;SDS011;39789;53.216;5.624;2022-12-07T10:02:40;6.70;;;2.25;;
53875;SDS011;39789;53.216;5.624;2022-12-07T10:05:11;10.65;;;1.73;;
53875;SDS011;39789;53.216;5.624;2022-12-07T10:07:39;6.07;;;1.50;;
53875;SDS011;39789;53.216;5.624;2022-12-07T10:10:06;9.13;;;1.90;;
53875;SDS011;39789;53.216;5.624;2022-12-07T10:12:52;9.85;;;1.58;;
53875;SDS011;39789;53.216;5.624;2022-12-07T10:15:23;9.65;;;2.25;;
53875;SDS011;39789;53.216;5.624;2022-12-07T10:18:13;6.65;;;2.22;;
53875;SDS011;39789;53.216;5.624;2022-12-07T10:20:44;6.15;;;1.33;;
53875;SDS011;39789;53.216;5.624;2022-12-07T10:23:14;9.50;;;1.90;;
53875;SDS011;39789;53.216;5.624;2022-12-07T10:25:42;12.90;;;1.65;;
53875;SDS011;39789;53.216;5.624;2022-12-07T10:28:18;5.22;;;1.80;;
53875;SDS011;39789;53.216;5.624;2022-12-07T10:33:33;7.63;;;1.70;;
53875;SDS011;39789;53.216;5.624;2022-12-07T10:39:04;9.23;;;2.30;;
53875;SDS011;39789;53.216;5.624;2022-12-07T10:41:47;9.38;;;1.90;;
53875;SDS011;39789;53.216;5.624;2022-12-07T10:44:20;11.65;;;1.80;;
53875;SDS011;39789;53.216;5.624;2022-12-07T10:50:31;12.77;;;1.92;;
53875;SDS011;39789;53.216;5.624;2022-12-07T10:53:40;5.30;;;2.05;;
53875;SDS011;39789;53.216;5.624;2022-12-07T10:56:17;11.77;;;1.85;;
53875;SDS011;39789;53.216;5.624;2022-12-07T11:01:57;7.22;;;2.00;;
53875;SDS011;39789;53.216;5.624;2022-12-07T11:07:39;16.00;;;2.25;;
53875;SDS011;39789;53.216;5.624;2022-12-07T11:10:15;2.60;;;1.38;;
53875;SDS011;39789;53.216;5.624;2022-12-07T11:13:56;8.07;;;1.75;;
53875;SDS011;39789;53.216;5.624;2022-12-07T11:18:56;8.25;;;2.22;;
53875;SDS011;39789;53.216;5.624;2022-12-07T11:21:58;8.20;;;1.98;;
53875;SDS011;39789;53.216;5.624;2022-12-07T11:24:44;10.18;;;2.30;;
53875;SDS011;39789;53.216;5.624;2022-12-07T11:27:36;11.05;;;2.20;;
53875;SDS011;39789;53.216;5.624;2022-12-07T11:30:13;7.72;;;2.05;;
53875;SDS011;39789;53.216;5.624;2022-12-07T11:35:31;2.70;;;1.05;;
53875;SDS011;39789;53.216;5.624;2022-12-07T11:38:20;3.97;;;1.52;;
53875;SDS011;39789;53.216;5.624;2022-12-07T11:40:50;4.22;;;1.25;;
53875;SDS011;39789;53.216;5.624;2022-12-07T11:43:24;1.73;;;0.82;;
53875;SDS011;39789;53.216;5.624;2022-12-07T11:46:00;4.50;;;0.98;;
53875;SDS011;39789;53.216;5.624;2022-12-07T11:52:30;5.75;;;1.35;;
53875;SDS011;39789;53.216;5.624;2022-12-07T11:55:22;6.28;;;1.25;;
53875;SDS011;39789;53.216;5.624;2022-12-07T11:58:00;6.07;;;1.30;;
53875;SDS011;39789;53.216;5.624;2022-12-07T12:00:30;7.57;;;1.67;;
53875;SDS011;39789;53.216;5.624;2022-12-07T12:02:58;7.18;;;1.73;;
53875;SDS011;39789;53.216;5.624;2022-12-07T12:05:45;5.78;;;1.50;;
53875;SDS011;39789;53.216;5.624;2022-12-07T12:18:32;7.28;;;1.98;;
53875;SDS011;39789;53.216;5.624;2022-12-07T12:21:26;11.63;;;1.63;;
53875;SDS011;39789;53.216;5.624;2022-12-07T12:26:23;6.80;;;1.80;;
53875;SDS011;39789;53.216;5.624;2022-12-07T12:33:49;6.15;;;1.38;;
53875;SDS011;39789;53.216;5.624;2022-12-07T12:36:18;4.50;;;1.40;;
53875;SDS011;39789;53.216;5.624;2022-12-07T12:38:48;8.98;;;1.70;;
53875;SDS011;39789;53.216;5.624;2022-12-07T12:46:54;3.47;;;1.00;;
53875;SDS011;39789;53.216;5.624;2022-12-07T12:58:44;2.40;;;0.80;;
53875;SDS011;39789;53.216;5.624;2022-12-07T13:04:12;3.38;;;0.98;;
53875;SDS011;39789;53.216;5.624;2022-12-07T13:06:47;3.80;;;1.35;;
53875;SDS011;39789;53.216;5.624;2022-12-07T13:09:17;1.88;;;1.00;;
53875;SDS011;39789;53.216;5.624;2022-12-07T13:11:50;3.28;;;1.08;;
53875;SDS011;39789;53.216;5.624;2022-12-07T13:14:38;4.30;;;1.00;;
53875;SDS011;39789;53.216;5.624;2022-12-07T13:17:12;5.65;;;1.00;;
53875;SDS011;39789;53.216;5.624;2022-12-07T13:19:58;6.65;;;1.33;;
53875;SDS011;39789;53.216;5.624;2022-12-07T13:28:18;1.58;;;0.65;;
53875;SDS011;39789;53.216;5.624;2022-12-07T13:30:46;2.75;;;0.52;;
53875;SDS011;39789;53.216;5.624;2022-12-07T13:33:47;2.95;;;0.80;;
53875;SDS011;39789;53.216;5.624;2022-12-07T13:36:21;2.92;;;0.73;;
53875;SDS011;39789;53.216;5.624;2022-12-07T13:39:01;2.22;;;0.73;;
53875;SDS011;39789;53.216;5.624;2022-12-07T13:41:40;5.80;;;0.95;;
53875;SDS011;39789;53.216;5.624;2022-12-07T13:44:09;2.30;;;0.90;;
53875;SDS011;39789;53.216;5.624;2022-12-07T13:47:23;2.25;;;0.90;;
53875;SDS011;39789;53.216;5.624;2022-12-07T13:53:19;2.70;;;1.30;;
53875;SDS011;39789;53.216;5.624;2022-12-07T13:55:45;4.78;;;1.45;;
53875;SDS011;39789;53.216;5.624;2022-12-07T13:58:12;2.83;;;1.00;;
53875;SDS011;39789;53.216;5.624;2022-12-07T14:01:16;4.38;;;1.00;;
53875;SDS011;39789;53.216;5.624;2022-12-07T14:03:43;5.47;;;1.30;;
53875;SDS011;39789;53.216;5.624;2022-12-07T14:06:27;3.53;;;1.38;;
53875;SDS011;39789;53.216;5.624;2022-12-07T14:09:05;2.72;;;0.90;;
53875;SDS011;39789;53.216;5.624;2022-12-07T14:11:35;1.80;;;1.10;;
53875;SDS011;39789;53.216;5.624;2022-12-07T14:14:15;6.18;;;1.02;;
53875;SDS011;39789;53.216;5.624;2022-12-07T14:19:50;3.78;;;1.02;;
53875;SDS011;39789;53.216;5.624;2022-12-07T14:24:48;2.15;;;1.60;;
53875;SDS011;39789;53.216;5.624;2022-12-07T14:27:22;3.03;;;1.02;;
53875;SDS011;39789;53.216;5.624;2022-12-07T14:29:51;5.38;;;1.27;;
53875;SDS011;39789;53.216;5.624;2022-12-07T14:34:53;2.30;;;1.25;;
53875;SDS011;39789;53.216;5.624;2022-12-07T14:37:20;2.83;;;1.08;;
53875;SDS011;39789;53.216;5.624;2022-12-07T14:39:45;5.75;;;1.25;;
53875;SDS011;39789;53.216;5.624;2022-12-07T14:42:11;4.63;;;1.20;;
53875;SDS011;39789;53.216;5.624;2022-12-07T14:44:37;2.88;;;1.55;;
53875;SDS011;39789;53.216;5.624;2022-12-07T14:47:08;4.32;;;1.40;;
53875;SDS011;39789;53.216;5.624;2022-12-07T14:56:44;5.55;;;2.20;;
53875;SDS011;39789;53.216;5.624;2022-12-07T14:59:13;4.40;;;1.23;;
53875;SDS011;39789;53.216;5.624;2022-12-07T15:01:41;4.72;;;1.40;;
53875;SDS011;39789;53.216;5.624;2022-12-07T15:04:06;6.63;;;1.35;;
53875;SDS011;39789;53.216;5.624;2022-12-07T15:06:32;5.03;;;1.13;;
53875;SDS011;39789;53.216;5.624;2022-12-07T15:08:58;6.50;;;1.20;;
53875;SDS011;39789;53.216;5.624;2022-12-07T15:11:24;6.75;;;1.60;;
53875;SDS011;39789;53.216;5.624;2022-12-07T15:13:50;3.28;;;0.93;;
53875;SDS011;39789;53.216;5.624;2022-12-07T15:16:36;4.20;;;1.52;;
53875;SDS011;39789;53.216;5.624;2022-12-07T15:19:04;5.63;;;1.20;;
53875;SDS011;39789;53.216;5.624;2022-12-07T15:21:30;5.53;;;1.48;;
53875;SDS011;39789;53.216;5.624;2022-12-07T15:23:56;4.38;;;1.20;;
53875;SDS011;39789;53.216;5.624;2022-12-07T15:26:21;4.80;;;1.38;;
53875;SDS011;39789;53.216;5.624;2022-12-07T15:28:47;0.95;;;0.80;;
53875;SDS011;39789;53.216;5.624;2022-12-07T15:31:13;2.53;;;1.10;;
53875;SDS011;39789;53.216;5.624;2022-12-07T15:33:40;3.78;;;0.95;;
53875;SDS011;39789;53.216;5.624;2022-12-07T15:36:06;5.07;;;1.00;;
53875;SDS011;39789;53.216;5.624;2022-12-07T15:38:32;5.72;;;1.27;;
53875;SDS011;39789;53.216;5.624;2022-12-07T15:40:58;4.57;;;1.30;;
53875;SDS011;39789;53.216;5.624;2022-12-07T15:43:23;5.13;;;0.93;;
53875;SDS011;39789;53.216;5.624;2022-12-07T15:46:07;8.30;;;1.07;;
53875;SDS011;39789;53.216;5.624;2022-12-07T15:48:33;1.98;;;0.90;;
53875;SDS011;39789;53.216;5.624;2022-12-07T15:51:01;3.53;;;1.13;;
53875;SDS011;39789;53.216;5.624;2022-12-07T15:53:28;7.00;;;1.65;;
53875;SDS011;39789;53.216;5.624;2022-12-07T15:55:54;5.40;;;1.30;;
53875;SDS011;39789;53.216;5.624;2022-12-07T15:58:19;5.38;;;1.50;;
53875;SDS011;39789;53.216;5.624;2022-12-07T16:00:45;4.68;;;1.35;;
53875;SDS011;39789;53.216;5.624;2022-12-07T16:03:13;3.65;;;1.20;;
53875;SDS011;39789;53.216;5.624;2022-12-07T16:05:40;6.35;;;1.35;;
53875;SDS011;39789;53.216;5.624;2022-12-07T16:08:06;5.57;;;1.38;;
53875;SDS011;39789;53.216;5.624;2022-12-07T16:10:35;5.65;;;1.52;;
53875;SDS011;39789;53.216;5.624;2022-12-07T16:13:01;6.35;;;1.75;;
53875;SDS011;39789;53.216;5.624;2022-12-07T16:15:27;6.32;;;2.15;;
53875;SDS011;39789;53.216;5.624;2022-12-07T16:17:53;7.78;;;1.50;;
53875;SDS011;39789;53.216;5.624;2022-12-07T16:20:21;3.75;;;1.60;;
53875;SDS011;39789;53.216;5.624;2022-12-07T16:22:51;8.65;;;1.70;;
53875;SDS011;39789;53.216;5.624;2022-12-07T16:25:20;5.80;;;1.88;;
53875;SDS011;39789;53.216;5.624;2022-12-07T16:27:46;8.25;;;2.05;;
53875;SDS011;39789;53.216;5.624;2022-12-07T16:30:12;5.88;;;1.60;;
53875;SDS011;39789;53.216;5.624;2022-12-07T16:32:39;6.38;;;1.65;;
53875;SDS011;39789;53.216;5.624;2022-12-07T16:35:04;4.00;;;1.20;;
53875;SDS011;39789;53.216;5.624;2022-12-07T16:37:31;2.72;;;1.15;;
53875;SDS011;39789;53.216;5.624;2022-12-07T16:39:57;6.65;;;1.50;;
53875;SDS011;39789;53.216;5.624;2022-12-07T16:42:23;5.13;;;1.20;;
53875;SDS011;39789;53.216;5.624;2022-12-07T16:45:06;3.42;;;0.88;;
53875;SDS011;39789;53.216;5.624;2022-12-07T16:47:33;5.88;;;1.60;;
53875;SDS011;39789;53.216;5.624;2022-12-07T16:50:04;6.30;;;1.38;;
53875;SDS011;39789;53.216;5.624;2022-12-07T16:56:22;3.92;;;1.60;;
53875;SDS011;39789;53.216;5.624;2022-12-07T16:58:47;4.22;;;1.60;;
53875;SDS011;39789;53.216;5.624;2022-12-07T17:01:16;9.18;;;2.30;;
53875;SDS011;39789;53.216;5.624;2022-12-07T17:03:44;5.95;;;1.85;;
53875;SDS011;39789;53.216;5.624;2022-12-07T17:06:11;8.75;;;2.05;;
53875;SDS011;39789;53.216;5.624;2022-12-07T17:08:39;3.10;;;1.40;;
53875;SDS011;39789;53.216;5.624;2022-12-07T17:11:16;12.02;;;2.60;;